createdAt,value
2023-04-21T00:00:30.424Z,100897.25
2023-04-21T00:02:57.566Z,100888.28
2023-04-21T00:05:27.760Z,100894.78
2023-04-21T00:08:01.846Z,100885.38
2023-04-21T00:10:31.714Z,100880.88
2023-04-21T00:12:58.544Z,100874.44
2023-04-21T00:15:25.960Z,100876.13
2023-04-21T00:18:06.556Z,100870.69
2023-04-21T00:20:33.577Z,100873.94
2023-04-21T00:23:00.815Z,100877.03
2023-04-21T00:25:28.052Z,100873.06
2023-04-21T00:27:54.909Z,100874.25
2023-04-21T00:30:22.193Z,100882.28
2023-04-21T00:32:58.945Z,100875.94
2023-04-21T00:35:27.017Z,100874.41
2023-04-21T00:37:56.469Z,100873.66
2023-04-21T00:40:29.301Z,100872.72
2023-04-21T00:42:56.266Z,100870.53
2023-04-21T00:45:23.117Z,100867.34
2023-04-21T00:47:52.337Z,100868.19
2023-04-21T00:53:00.230Z,100863.88
2023-04-21T00:55:27.360Z,100862.19
2023-04-21T00:58:04.056Z,100855.41
2023-04-21T01:00:48.364Z,100856.84
2023-04-21T01:03:17.004Z,100864.88
2023-04-21T01:05:48.353Z,100864.00
2023-04-21T01:08:21.448Z,100873.31
2023-04-21T01:10:57.323Z,100867.00
2023-04-21T01:13:33.493Z,100864.09
2023-04-21T01:16:00.477Z,100863.25
2023-04-21T01:18:27.419Z,100864.78
2023-04-21T01:21:10.833Z,100872.72
2023-04-21T01:23:49.334Z,100868.91
2023-04-21T01:26:26.867Z,100867.06
2023-04-21T01:28:58.051Z,100871.19
2023-04-21T01:31:26.399Z,100871.50
2023-04-21T01:33:55.120Z,100865.19
2023-04-21T01:36:21.987Z,100870.41
2023-04-21T01:38:55.887Z,100874.66
2023-04-21T01:41:22.781Z,100874.53
2023-04-21T01:43:49.742Z,100875.63
2023-04-21T01:46:20.127Z,100875.13
2023-04-21T01:48:52.272Z,100874.03
2023-04-21T01:51:21.662Z,100880.50
2023-04-21T01:53:48.451Z,100877.91
2023-04-21T01:56:15.754Z,100879.28
2023-04-21T01:58:48.944Z,100871.75
2023-04-21T02:01:27.862Z,100871.19
2023-04-21T02:04:04.207Z,100876.50
2023-04-21T02:06:34.045Z,100878.78
2023-04-21T02:09:01.011Z,100877.69
2023-04-21T02:11:27.896Z,100870.59
2023-04-21T02:13:56.120Z,100881.28
2023-04-21T02:16:32.050Z,100882.53
2023-04-21T02:19:00.030Z,100884.72
2023-04-21T02:21:28.254Z,100877.44
2023-04-21T02:23:55.631Z,100890.84
2023-04-21T02:26:23.794Z,100882.91
2023-04-21T02:28:53.810Z,100885.34
2023-04-21T02:31:23.965Z,100890.41
2023-04-21T02:33:53.530Z,100888.25
2023-04-21T02:36:21.158Z,100889.16
2023-04-21T02:38:54.047Z,100883.69
2023-04-21T02:41:20.882Z,100888.47
2023-04-21T02:43:50.703Z,100891.22
2023-04-21T02:46:17.640Z,100887.41
2023-04-21T02:48:50.742Z,100881.19
2023-04-21T02:51:20.632Z,100891.34
2023-04-21T02:53:49.116Z,100888.34
2023-04-21T02:56:17.308Z,100891.75
2023-04-21T02:58:44.252Z,100889.13
2023-04-21T03:01:24.376Z,100894.50
2023-04-21T03:03:52.061Z,100891.31
2023-04-21T03:06:22.225Z,100899.34
2023-04-21T03:08:49.367Z,100898.91
2023-04-21T03:11:16.198Z,100898.44
2023-04-21T03:14:01.597Z,100894.97
2023-04-21T03:16:34.605Z,100894.31
2023-04-21T03:19:02.588Z,100898.84
2023-04-21T03:21:39.709Z,100906.94
2023-04-21T03:24:16.197Z,100900.34
2023-04-21T03:26:46.131Z,100906.94
2023-04-21T03:29:28.887Z,100907.41
2023-04-21T03:31:56.169Z,100909.44
2023-04-21T03:34:23.013Z,100910.75
2023-04-21T03:36:54.624Z,100903.66
2023-04-21T03:39:25.004Z,100904.88
2023-04-21T03:41:54.030Z,100908.06
2023-04-21T03:44:23.802Z,100908.03
2023-04-21T03:47:01.615Z,100911.78
2023-04-21T03:49:38.316Z,100908.34
2023-04-21T03:52:06.222Z,100913.38
2023-04-21T03:54:39.789Z,100912.81
2023-04-21T03:57:10.008Z,100915.00
2023-04-21T03:59:36.736Z,100912.84
2023-04-21T04:02:06.688Z,100912.03
2023-04-21T04:04:47.386Z,100919.34
2023-04-21T04:07:24.088Z,100921.38
2023-04-21T04:10:04.636Z,100924.88
2023-04-21T04:12:40.633Z,100926.34
2023-04-21T04:15:13.002Z,100922.81
2023-04-21T04:17:42.729Z,100932.00
2023-04-21T04:20:09.819Z,100922.69
2023-04-21T04:22:41.218Z,100923.78
2023-04-21T04:25:08.389Z,100926.53
2023-04-21T04:27:38.024Z,100928.94
2023-04-21T04:30:08.970Z,100927.06
2023-04-21T04:32:39.831Z,100932.06
2023-04-21T04:35:07.039Z,100927.88
2023-04-21T04:37:36.099Z,100928.84
2023-04-21T04:40:06.011Z,100934.88
2023-04-21T04:42:37.040Z,100936.56
2023-04-21T04:45:04.135Z,100945.44
2023-04-21T04:47:31.205Z,100945.22
2023-04-21T04:50:00.570Z,100944.41
2023-04-21T04:52:32.104Z,100950.66
2023-04-21T04:55:04.758Z,100948.69
2023-04-21T04:57:45.118Z,100949.41
2023-04-21T05:00:12.786Z,100953.13
2023-04-21T05:02:40.239Z,100957.25
2023-04-21T05:05:16.657Z,100968.50
2023-04-21T05:07:46.126Z,100970.59
2023-04-21T05:10:12.869Z,100967.63
2023-04-21T05:12:48.659Z,100967.72
2023-04-21T05:15:18.780Z,100965.97
2023-04-21T05:17:45.788Z,100974.09
2023-04-21T05:20:20.230Z,100977.88
2023-04-21T05:22:57.636Z,100978.03
2023-04-21T05:25:24.510Z,100981.53
2023-04-21T05:27:51.541Z,100981.47
2023-04-21T05:30:21.392Z,100982.94
2023-04-21T05:32:48.173Z,100987.69
2023-04-21T05:35:21.099Z,100992.50
2023-04-21T05:37:51.852Z,100980.94
2023-04-21T05:40:25.138Z,100987.22
2023-04-21T05:42:54.351Z,100994.19
2023-04-21T05:45:26.490Z,100989.91
2023-04-21T05:47:54.710Z,100991.59
2023-04-21T05:50:28.785Z,100989.94
2023-04-21T05:52:57.379Z,100992.06
2023-04-21T05:55:27.032Z,100982.31
2023-04-21T05:57:57.089Z,100986.84
2023-04-21T06:00:27.782Z,100994.00
2023-04-21T06:03:01.457Z,100997.41
2023-04-21T06:05:28.499Z,100991.94
2023-04-21T06:08:08.398Z,100999.97
2023-04-21T06:10:47.113Z,101003.41
2023-04-21T06:13:15.272Z,101007.03
2023-04-21T06:15:42.473Z,101005.34
2023-04-21T06:18:35.642Z,101007.69
2023-04-21T06:21:05.719Z,101010.31
2023-04-21T06:23:46.412Z,101020.56
2023-04-21T06:26:16.232Z,101013.22
2023-04-21T06:28:48.034Z,101012.94
2023-04-21T06:31:15.859Z,101010.81
2023-04-21T06:33:45.628Z,101007.75
2023-04-21T06:36:12.517Z,101017.47
2023-04-21T06:38:41.907Z,101021.13
2023-04-21T06:41:11.900Z,101021.75
2023-04-21T06:43:39.688Z,101014.75
2023-04-21T06:46:06.556Z,101021.84
2023-04-21T06:48:41.018Z,101026.56
2023-04-21T06:51:07.898Z,101019.94
2023-04-21T06:53:40.283Z,101021.19
2023-04-21T06:56:07.438Z,101027.78
2023-04-21T06:58:34.364Z,101025.22
2023-04-21T07:01:04.705Z,101024.06
2023-04-21T07:03:35.894Z,101025.31
2023-04-21T07:06:02.833Z,101027.19
2023-04-21T07:08:36.972Z,101019.84
2023-04-21T07:11:06.791Z,101023.31
2023-04-21T07:13:42.640Z,101036.19
2023-04-21T07:16:09.468Z,101036.00
2023-04-21T07:18:36.584Z,101039.50
2023-04-21T07:21:03.487Z,101032.03
2023-04-21T07:23:37.439Z,101033.81
2023-04-21T07:26:10.394Z,101038.88
2023-04-21T07:28:38.962Z,101044.38
2023-04-21T07:31:05.917Z,101042.34
2023-04-21T07:33:32.950Z,101049.13
2023-04-21T07:36:00.253Z,101050.09
2023-04-21T07:38:34.757Z,101041.19
2023-04-21T07:41:02.796Z,101041.53
2023-04-21T07:43:46.072Z,101043.84
2023-04-21T07:46:15.938Z,101046.09
2023-04-21T07:51:28.161Z,101054.22
2023-04-21T07:54:02.659Z,101055.47
2023-04-21T07:56:38.576Z,101056.69
2023-04-21T07:59:05.409Z,101057.19
2023-04-21T08:01:35.704Z,101062.72
2023-04-21T08:04:02.781Z,101058.53
2023-04-21T08:06:35.718Z,101056.00
2023-04-21T08:09:39.768Z,101061.88
2023-04-21T08:12:09.458Z,101064.56
2023-04-21T08:14:45.269Z,101072.81
2023-04-21T08:17:12.127Z,101067.13
2023-04-21T08:19:38.896Z,101070.41
2023-04-21T08:22:15.081Z,101072.53
2023-04-21T08:24:45.087Z,101065.19
2023-04-21T08:30:01.535Z,101075.41
2023-04-21T08:32:37.551Z,101074.16
2023-04-21T08:35:11.686Z,101080.25
2023-04-21T08:37:42.063Z,101081.72
2023-04-21T08:40:18.264Z,101082.44
2023-04-21T08:43:09.600Z,101077.88
2023-04-21T08:45:36.705Z,101081.53
2023-04-21T08:48:07.416Z,101075.41
2023-04-21T08:50:34.936Z,101077.91
2023-04-21T08:53:01.885Z,101075.19
2023-04-21T08:55:33.204Z,101080.41
2023-04-21T08:58:03.608Z,101085.59
2023-04-21T09:00:33.379Z,101085.94
2023-04-21T09:03:02.484Z,101085.47
2023-04-21T09:05:52.239Z,101081.84
2023-04-21T09:08:28.345Z,101086.09
2023-04-21T09:10:55.673Z,101081.97
2023-04-21T09:13:32.077Z,101082.78
2023-04-21T09:16:06.620Z,101080.59
2023-04-21T09:18:42.565Z,101083.69
2023-04-21T09:21:15.183Z,101087.78
2023-04-21T09:23:53.061Z,101081.78
2023-04-21T09:26:35.215Z,101086.50
2023-04-21T09:29:10.017Z,101079.00
2023-04-21T09:31:36.881Z,101088.44
2023-04-21T09:34:06.129Z,101084.75
2023-04-21T09:36:36.040Z,101085.81
2023-04-21T09:41:42.936Z,101089.53
2023-04-21T09:44:12.335Z,101083.56
2023-04-21T09:46:46.231Z,101079.47
2023-04-21T09:49:17.537Z,101075.03
2023-04-21T09:54:35.787Z,101084.44
2023-04-21T09:57:04.913Z,101079.34
2023-04-21T09:59:41.026Z,101081.47
2023-04-21T10:02:18.236Z,101082.66
2023-04-21T10:04:46.071Z,101084.56
2023-04-21T10:07:17.457Z,101074.97
2023-04-21T10:09:59.069Z,101073.09
2023-04-21T10:12:27.370Z,101075.50
2023-04-21T10:14:57.356Z,101065.97
2023-04-21T10:17:26.928Z,101061.81
2023-04-21T10:19:58.662Z,101066.09
2023-04-21T10:22:40.971Z,101067.72
2023-04-21T10:25:10.362Z,101060.66
2023-04-21T10:27:43.832Z,101064.91
2023-04-21T10:30:24.441Z,101066.59
2023-04-21T10:33:05.017Z,101062.50
2023-04-21T10:36:05.134Z,101045.22
2023-04-21T10:38:44.482Z,101042.94
2023-04-21T10:41:31.270Z,101045.38
2023-04-21T10:44:12.293Z,101041.94
2023-04-21T10:46:42.204Z,101037.50
2023-04-21T10:49:30.872Z,101034.41
2023-04-21T10:52:02.834Z,101027.50
2023-04-21T10:55:07.605Z,101043.88
2023-04-21T10:57:37.348Z,101034.72
2023-04-21T11:00:09.365Z,101048.69
2023-04-21T11:02:50.567Z,101045.97
2023-04-21T11:05:18.965Z,101044.59
2023-04-21T11:07:50.717Z,101042.66
2023-04-21T11:10:20.570Z,101043.81
2023-04-21T11:12:48.964Z,101042.03
2023-04-21T11:15:17.306Z,101050.00
2023-04-21T11:17:51.553Z,101042.66
2023-04-21T11:20:18.496Z,101042.66
2023-04-21T11:22:45.645Z,101036.25
2023-04-21T11:25:22.007Z,101035.91
2023-04-21T11:28:00.443Z,101030.53
2023-04-21T11:30:39.612Z,101032.63
2023-04-21T11:33:06.527Z,101034.81
2023-04-21T11:35:42.578Z,101037.69
2023-04-21T11:38:09.390Z,101028.13
2023-04-21T11:41:03.918Z,101030.88
2023-04-21T11:43:36.383Z,101029.22
2023-04-21T11:46:14.176Z,101027.19
2023-04-21T11:48:45.876Z,101026.91
2023-04-21T11:51:22.055Z,101024.75
2023-04-21T11:54:06.265Z,101026.25
2023-04-21T11:56:38.979Z,101024.13
2023-04-21T11:59:14.002Z,101020.69
2023-04-21T12:01:49.171Z,101016.13
2023-04-21T12:04:25.189Z,101018.88
2023-04-21T12:07:00.423Z,101014.63
2023-04-21T12:09:35.948Z,101012.66
2023-04-21T12:12:05.711Z,101012.44
2023-04-21T12:14:33.846Z,101018.41
2023-04-21T12:17:00.903Z,101012.78
2023-04-21T12:19:42.008Z,101012.28
2023-04-21T12:22:13.728Z,101014.63
2023-04-21T12:24:55.513Z,101011.97
2023-04-21T12:27:33.008Z,101020.44
2023-04-21T12:30:07.549Z,101011.97
2023-04-21T12:32:40.357Z,101019.78
2023-04-21T12:35:12.210Z,101019.72
2023-04-21T12:37:39.160Z,101014.16
2023-04-21T12:40:23.907Z,101020.03
2023-04-21T12:43:05.342Z,101013.72
2023-04-21T12:45:35.071Z,101017.16
2023-04-21T12:48:09.192Z,101018.72
2023-04-21T12:50:48.722Z,101015.13
2023-04-21T12:53:18.145Z,101013.41
2023-04-21T12:55:56.788Z,101011.81
2023-04-21T12:58:33.554Z,101013.00
2023-04-21T13:01:03.365Z,101006.63
2023-04-21T13:03:31.990Z,101008.41
2023-04-21T13:05:58.985Z,101005.56
2023-04-21T13:08:26.090Z,101007.13
2023-04-21T13:10:54.678Z,101004.72
2023-04-21T13:13:22.187Z,101002.16
2023-04-21T13:15:49.181Z,100998.41
2023-04-21T13:18:15.987Z,100988.16
2023-04-21T13:20:48.576Z,101003.97
2023-04-21T13:23:20.068Z,101003.13
2023-04-21T13:25:51.220Z,101005.16
2023-04-21T13:28:23.188Z,101005.88
2023-04-21T13:30:52.720Z,101011.31
2023-04-21T13:33:21.444Z,101001.09
2023-04-21T13:35:48.313Z,101004.69
2023-04-21T13:38:21.168Z,101003.03
2023-04-21T13:40:52.017Z,101008.84
2023-04-21T13:43:19.029Z,101001.88
2023-04-21T13:45:48.359Z,101001.72
2023-04-21T13:48:15.195Z,101007.97
2023-04-21T13:50:47.922Z,101006.13
2023-04-21T13:53:19.906Z,101008.59
2023-04-21T13:55:47.977Z,101001.16
2023-04-21T13:58:16.251Z,101005.09
2023-04-21T14:00:47.600Z,100995.81
2023-04-21T14:03:14.520Z,100997.03
2023-04-21T14:05:51.384Z,100994.72
2023-04-21T14:08:28.868Z,100993.88
2023-04-21T14:11:06.074Z,100988.06
2023-04-21T14:13:41.746Z,100989.56
2023-04-21T14:16:15.687Z,100982.53
2023-04-21T14:18:48.626Z,100975.47
2023-04-21T14:21:15.436Z,100981.22
2023-04-21T14:23:42.178Z,100972.19
2023-04-21T14:26:09.189Z,100975.28
2023-04-21T14:28:37.446Z,100973.97
2023-04-21T14:31:05.573Z,100978.06
2023-04-21T14:33:33.616Z,100968.16
2023-04-21T14:36:01.359Z,100975.06
2023-04-21T14:38:30.979Z,100974.66
2023-04-21T14:41:07.290Z,100966.03
2023-04-21T14:43:34.192Z,100964.84
2023-04-21T14:46:01.402Z,100958.81
2023-04-21T14:48:30.015Z,100961.59
2023-04-21T14:51:03.012Z,100959.56
2023-04-21T14:53:30.170Z,100965.34
2023-04-21T14:56:06.747Z,100959.88
2023-04-21T14:58:37.654Z,100960.84
2023-04-21T15:01:04.814Z,100957.25
2023-04-21T15:03:34.915Z,100954.19
2023-04-21T15:06:01.928Z,100951.06
2023-04-21T15:08:28.813Z,100959.03
2023-04-21T15:10:56.574Z,100956.38
2023-04-21T15:13:26.769Z,100949.50
2023-04-21T15:15:56.717Z,100951.91
2023-04-21T15:18:23.498Z,100953.19
2023-04-21T15:21:02.769Z,100954.13
2023-04-21T15:23:30.541Z,100951.31
2023-04-21T15:25:59.554Z,100943.00
2023-04-21T15:28:26.448Z,100939.13
2023-04-21T15:30:53.463Z,100943.38
2023-04-21T15:33:20.352Z,100944.00
2023-04-21T15:35:50.041Z,100939.13
2023-04-21T15:38:16.786Z,100946.00
2023-04-21T15:40:59.784Z,100937.53
2023-04-21T15:43:28.902Z,100944.72
2023-04-21T15:46:04.022Z,100938.44
2023-04-21T15:48:31.321Z,100936.19
2023-04-21T15:51:00.407Z,100944.63
2023-04-21T15:53:32.842Z,100934.31
2023-04-21T15:55:59.655Z,100940.25
2023-04-21T15:58:37.638Z,100937.75
2023-04-21T16:01:20.764Z,100942.38
2023-04-21T16:03:52.629Z,100939.63
2023-04-21T16:06:22.861Z,100948.47
2023-04-21T16:08:52.756Z,100943.00
2023-04-21T16:11:19.543Z,100938.22
2023-04-21T16:13:59.078Z,100941.59
2023-04-21T16:19:17.776Z,100938.28
2023-04-21T16:21:46.666Z,100942.53
2023-04-21T16:24:13.907Z,100943.75
2023-04-21T16:27:25.228Z,100952.59
2023-04-21T16:29:55.840Z,100946.75
2023-04-21T16:32:28.077Z,100941.97
2023-04-21T16:34:55.414Z,100945.56
2023-04-21T16:37:26.355Z,100951.19
2023-04-21T16:39:55.953Z,100946.84
2023-04-21T16:45:08.834Z,100949.81
2023-04-21T16:47:42.034Z,100958.25
2023-04-21T16:50:24.178Z,100951.00
2023-04-21T16:52:51.576Z,100964.66
2023-04-21T16:58:05.201Z,100965.16
2023-04-21T17:03:08.469Z,100964.03
2023-04-21T17:05:37.669Z,100960.66
2023-04-21T17:08:17.884Z,100966.94
2023-04-21T17:10:44.885Z,100958.75
2023-04-21T17:13:14.886Z,100955.69
2023-04-21T17:15:41.910Z,100958.41
2023-04-21T17:18:11.511Z,100963.13
2023-04-21T17:20:47.083Z,100968.53
2023-04-21T17:23:24.547Z,100969.81
2023-04-21T17:25:52.019Z,100968.38
2023-04-21T17:28:30.048Z,100969.16
2023-04-21T17:31:15.230Z,100966.81
2023-04-21T17:33:48.992Z,100977.16
2023-04-21T17:36:24.100Z,100973.41
2023-04-21T17:41:42.053Z,100977.28
2023-04-21T17:44:20.633Z,100972.81
2023-04-21T17:46:50.556Z,100983.88
2023-04-21T17:49:24.963Z,100978.56
2023-04-21T17:51:54.794Z,100975.91
2023-04-21T17:54:24.824Z,100971.47
2023-04-21T17:56:53.308Z,100983.97
2023-04-21T17:59:44.360Z,100980.22
2023-04-21T18:02:14.281Z,100986.63
2023-04-21T18:04:41.511Z,100983.03
2023-04-21T18:07:08.802Z,100979.56
2023-04-21T18:09:52.353Z,100987.63
2023-04-21T18:12:25.002Z,100990.72
2023-04-21T18:14:52.660Z,100990.88
2023-04-21T18:17:19.728Z,100982.38
2023-04-21T18:19:46.878Z,100979.56
2023-04-21T18:22:13.904Z,100988.41
2023-04-21T18:24:49.870Z,100990.22
2023-04-21T18:27:16.933Z,100993.66
2023-04-21T18:29:50.250Z,100997.25
2023-04-21T18:35:17.893Z,100998.28
2023-04-21T18:37:45.010Z,101001.41
2023-04-21T18:40:21.819Z,101002.13
2023-04-21T18:42:52.432Z,101008.97
2023-04-21T18:45:28.931Z,100999.28
2023-04-21T18:48:31.150Z,101002.22
2023-04-21T18:51:02.209Z,101004.34
2023-04-21T18:53:29.100Z,101010.66
2023-04-21T18:58:37.698Z,101006.47
2023-04-21T19:01:25.875Z,101006.47
2023-04-21T19:03:55.666Z,101013.69
2023-04-21T19:06:28.768Z,101017.63
2023-04-21T19:08:57.138Z,101023.47
2023-04-21T19:11:35.062Z,101017.91
2023-04-21T19:14:01.933Z,101014.28
2023-04-21T19:16:33.242Z,101019.59
2023-04-21T19:19:03.170Z,101022.81
2023-04-21T19:21:33.790Z,101019.34
2023-04-21T19:24:00.808Z,101021.31
2023-04-21T19:26:27.956Z,101033.69
2023-04-21T19:28:54.844Z,101031.63
2023-04-21T19:31:25.566Z,101034.53
2023-04-21T19:34:04.705Z,101028.91
2023-04-21T19:36:42.215Z,101035.50
2023-04-21T19:39:19.649Z,101034.88
2023-04-21T19:41:54.049Z,101033.19
2023-04-21T19:44:22.372Z,101045.22
2023-04-21T19:46:57.190Z,101038.25
2023-04-21T19:49:29.709Z,101035.22
2023-04-21T19:57:36.622Z,101029.97
2023-04-21T20:00:11.900Z,101029.69
2023-04-21T20:02:49.349Z,101025.59
2023-04-21T20:05:24.781Z,101025.97
2023-04-21T20:07:54.123Z,101025.31
2023-04-21T20:13:37.121Z,101034.81
2023-04-21T20:17:00.605Z,101035.09
2023-04-21T20:19:53.208Z,101027.44
2023-04-21T20:22:32.437Z,101038.66
2023-04-21T20:25:19.870Z,101045.16
2023-04-21T20:28:26.469Z,101037.06
2023-04-21T20:31:33.479Z,101028.53
2023-04-21T20:34:27.419Z,101040.38
2023-04-21T20:37:07.458Z,101040.59
2023-04-21T20:42:24.500Z,101062.91
2023-04-21T20:44:57.214Z,101061.06
2023-04-21T20:47:30.606Z,101070.16
2023-04-21T20:49:59.010Z,101068.66
2023-04-21T20:52:31.899Z,101072.34
2023-04-21T20:54:59.319Z,101070.63
2023-04-21T20:57:38.375Z,101070.50
2023-04-21T21:00:14.143Z,101079.94
2023-04-21T21:02:47.207Z,101078.34
2023-04-21T21:05:22.919Z,101080.53
2023-04-21T21:07:59.265Z,101091.81
2023-04-21T21:10:41.233Z,101081.44
2023-04-21T21:13:14.583Z,101083.56
2023-04-21T21:15:41.394Z,101085.91
2023-04-21T21:18:11.741Z,101089.16
2023-04-21T21:23:43.591Z,101092.00
2023-04-21T21:26:11.149Z,101096.47
2023-04-21T21:28:37.989Z,101097.81
2023-04-21T21:31:11.167Z,101090.34
2023-04-21T21:36:22.976Z,101092.69
2023-04-21T21:38:50.422Z,101093.94
2023-04-21T21:41:25.229Z,101083.84
2023-04-21T21:44:01.252Z,101087.56
2023-04-21T21:46:28.118Z,101086.47
2023-04-21T21:48:58.018Z,101084.94
2023-04-21T21:51:24.916Z,101089.59
2023-04-21T21:53:54.050Z,101088.47
2023-04-21T21:56:29.228Z,101092.97
2023-04-21T21:58:56.419Z,101091.09
2023-04-21T22:01:23.359Z,101095.59
2023-04-21T22:03:55.011Z,101089.47
2023-04-21T22:06:22.692Z,101083.56
2023-04-21T22:08:51.976Z,101079.63
2023-04-21T22:11:19.951Z,101092.50
2023-04-21T22:13:47.178Z,101090.88
2023-04-21T22:16:21.051Z,101087.00
2023-04-21T22:18:48.560Z,101095.94
2023-04-21T22:21:18.494Z,101106.41
2023-04-21T22:23:53.733Z,101100.16
2023-04-21T22:26:25.564Z,101109.41
2023-04-21T22:29:05.161Z,101108.84
2023-04-21T22:31:46.152Z,101107.06
2023-04-21T22:34:15.320Z,101115.28
2023-04-21T22:37:06.028Z,101114.31
2023-04-21T22:39:33.051Z,101114.53
2023-04-21T22:42:00.173Z,101115.16
2023-04-21T22:44:28.376Z,101119.06
2023-04-21T22:46:56.000Z,101124.59
2023-04-21T22:49:31.547Z,101128.44
2023-04-21T22:52:10.475Z,101124.53
2023-04-21T22:54:37.349Z,101128.72
2023-04-21T22:57:15.185Z,101132.22
2023-04-21T22:59:45.364Z,101130.75
2023-04-21T23:02:17.710Z,101134.25
2023-04-21T23:04:44.510Z,101125.00
2023-04-21T23:07:11.328Z,101127.56
2023-04-21T23:09:38.886Z,101127.47
2023-04-21T23:12:11.248Z,101126.50
2023-04-21T23:14:46.271Z,101124.97
2023-04-21T23:17:33.556Z,101126.03
2023-04-21T23:20:18.869Z,101123.38
2023-04-21T23:22:48.674Z,101125.09
2023-04-21T23:25:16.176Z,101117.28
2023-04-21T23:27:43.133Z,101119.91
2023-04-21T23:30:14.322Z,101119.06
2023-04-21T23:32:59.031Z,101120.88
2023-04-21T23:35:46.350Z,101118.13
2023-04-21T23:38:16.646Z,101116.13
2023-04-21T23:40:43.526Z,101117.69
2023-04-21T23:43:17.245Z,101122.19
2023-04-21T23:45:48.714Z,101120.66
2023-04-21T23:48:15.634Z,101115.94
2023-04-21T23:50:43.228Z,101118.75
2023-04-21T23:53:10.053Z,101117.81
2023-04-21T23:55:53.459Z,101116.53
2023-04-21T23:58:20.285Z,101117.03
